Time;durP1;ratioP1;P1;durP2;ratioP2;P2;SDS_P1;SDS_P2;PMS_P1;PMS_P2;Temp;Humidity;BMP_temperature;BMP_pressure;BME280_temperature;BME280_humidity;BME280_pressure;Samples;Min_cycle;Max_cycle;Signal;HPM_P1;HPM_P2
2022/11/03 00:01:39;;;;;;;10.90;3.00;;;;;;;;;;4993528;28;20180;-76
2022/11/03 00:04:05;;;;;;;6.17;2.50;;;;;;;;;;4994370;28;20239;-76
2022/11/03 00:06:31;;;;;;;5.53;2.73;;;;;;;;;;4987324;28;20188;-76
2022/11/03 00:08:57;;;;;;;4.33;2.90;;;;;;;;;;4994694;28;20191;-76
2022/11/03 00:11:22;;;;;;;4.27;2.50;;;;;;;;;;4995886;28;20199;-76
2022/11/03 00:13:47;;;;;;;5.07;2.73;;;;;;;;;;4989393;28;20180;-77
2022/11/03 00:16:12;;;;;;;4.60;2.57;;;;;;;;;;4991165;28;20187;-77
2022/11/03 00:18:38;;;;;;;7.00;3.20;;;;;;;;;;4990559;28;20176;-76
2022/11/03 00:21:10;;;;;;;7.40;2.73;;;;;;;;;;4992379;28;20254;-76
2022/11/03 00:23:37;;;;;;;9.33;2.60;;;;;;;;;;4993669;28;20186;-76
2022/11/03 00:26:08;;;;;;;9.33;2.77;;;;;;;;;;4988860;28;20187;-76
2022/11/03 00:28:34;;;;;;;6.00;2.70;;;;;;;;;;4990883;28;20210;-76
2022/11/03 00:31:00;;;;;;;7.23;3.10;;;;;;;;;;4992089;28;20176;-77
2022/11/03 00:33:29;;;;;;;7.27;3.33;;;;;;;;;;4991968;28;20190;-76
2022/11/03 00:35:58;;;;;;;4.40;2.27;;;;;;;;;;5022646;28;20226;-76
2022/11/03 00:38:23;;;;;;;8.10;2.90;;;;;;;;;;5014863;28;20187;-76
2022/11/03 00:40:53;;;;;;;8.73;2.50;;;;;;;;;;5015924;28;20457;-76
2022/11/03 00:43:18;;;;;;;5.87;2.50;;;;;;;;;;5017842;28;20170;-76
2022/11/03 00:45:43;;;;;;;3.90;2.60;;;;;;;;;;5024606;28;20194;-77
2022/11/03 00:50:53;;;;;;;9.27;2.73;;;;;;;;;;5028385;28;20267;-76
2022/11/03 00:53:18;;;;;;;6.97;2.50;;;;;;;;;;5030834;28;20294;-76
2022/11/03 00:55:47;;;;;;;8.17;2.60;;;;;;;;;;5014112;28;20176;-76
2022/11/03 00:58:13;;;;;;;7.90;3.00;;;;;;;;;;5029821;28;20184;-76
2022/11/03 01:00:38;;;;;;;4.23;2.43;;;;;;;;;;5022137;28;20175;-76
2022/11/03 01:03:03;;;;;;;4.77;2.43;;;;;;;;;;5019582;28;20182;-76
2022/11/03 01:08:12;;;;;;;6.50;2.53;;;;;;;;;;5033685;28;20216;-77
2022/11/03 01:10:37;;;;;;;5.53;2.40;;;;;;;;;;5029156;28;20211;-76
2022/11/03 01:13:02;;;;;;;6.63;2.63;;;;;;;;;;5022635;28;20213;-76
2022/11/03 01:15:28;;;;;;;8.37;3.20;;;;;;;;;;5031180;28;20190;-76
2022/11/03 01:17:53;;;;;;;5.20;2.40;;;;;;;;;;5023856;28;20180;-76
2022/11/03 01:20:18;;;;;;;6.03;2.40;;;;;;;;;;5010219;28;20194;-76
2022/11/03 01:22:43;;;;;;;6.13;2.20;;;;;;;;;;5012933;28;20174;-76
2022/11/03 01:25:08;;;;;;;5.47;2.60;;;;;;;;;;5013656;28;20209;-76
2022/11/03 01:27:34;;;;;;;5.13;2.30;;;;;;;;;;5016907;28;20194;-76
2022/11/03 01:29:59;;;;;;;4.30;2.50;;;;;;;;;;5012513;28;20229;-76
2022/11/03 01:32:24;;;;;;;5.20;2.30;;;;;;;;;;5016978;28;20207;-76
2022/11/03 01:34:49;;;;;;;6.47;2.67;;;;;;;;;;5013320;28;20296;-76
2022/11/03 01:37:14;;;;;;;3.70;2.40;;;;;;;;;;5029034;28;20192;-76
2022/11/03 01:39:40;;;;;;;4.70;2.50;;;;;;;;;;5029063;28;20267;-76
2022/11/03 01:42:05;;;;;;;4.33;2.20;;;;;;;;;;5018535;28;20187;-76
2022/11/03 01:44:32;;;;;;;6.43;2.53;;;;;;;;;;5038593;28;20182;-76
2022/11/03 01:47:16;;;;;;;4.13;2.60;;;;;;;;;;5030290;28;20182;-76
2022/11/03 01:49:44;;;;;;;3.03;2.13;;;;;;;;;;5022225;28;20172;-77
2022/11/03 01:52:36;;;;;;;3.73;2.23;;;;;;;;;;5013617;28;20333;-76
2022/11/03 01:55:03;;;;;;;5.83;3.03;;;;;;;;;;5010339;28;20194;-76
2022/11/03 01:57:40;;;;;;;6.37;2.40;;;;;;;;;;5015263;28;20199;-76
2022/11/03 02:00:07;;;;;;;5.40;2.33;;;;;;;;;;5008973;28;20175;-76
2022/11/03 02:02:32;;;;;;;5.80;2.40;;;;;;;;;;5028966;28;20178;-76
2022/11/03 02:04:59;;;;;;;5.93;2.90;;;;;;;;;;5011609;28;20190;-77
2022/11/03 02:07:27;;;;;;;7.30;3.03;;;;;;;;;;5016197;28;20190;-76
2022/11/03 02:09:53;;;;;;;4.47;2.90;;;;;;;;;;5035837;28;20253;-76
2022/11/03 02:12:20;;;;;;;7.67;2.80;;;;;;;;;;5038853;28;20202;-76
2022/11/03 02:14:50;;;;;;;4.50;2.87;;;;;;;;;;5015653;28;20178;-76
2022/11/03 02:17:16;;;;;;;5.57;2.60;;;;;;;;;;5012671;28;20185;-76
2022/11/03 02:19:44;;;;;;;7.13;2.57;;;;;;;;;;5036736;28;20174;-76
2022/11/03 02:22:09;;;;;;;5.43;2.73;;;;;;;;;;5013837;28;20190;-76
2022/11/03 02:24:49;;;;;;;4.20;2.30;;;;;;;;;;5027953;28;20214;-76
2022/11/03 02:27:15;;;;;;;2.97;2.20;;;;;;;;;;5023224;28;20227;-76
2022/11/03 02:29:40;;;;;;;4.80;2.67;;;;;;;;;;5012898;28;20201;-76
2022/11/03 02:32:22;;;;;;;5.60;2.60;;;;;;;;;;5015351;28;20255;-76
2022/11/03 02:35:11;;;;;;;6.60;2.53;;;;;;;;;;5018382;28;20215;-76
2022/11/03 02:37:39;;;;;;;5.93;3.20;;;;;;;;;;5003827;28;20189;-77
2022/11/03 02:40:09;;;;;;;4.60;2.60;;;;;;;;;;5014745;28;20258;-77
2022/11/03 02:42:35;;;;;;;8.00;2.37;;;;;;;;;;5015521;28;20198;-77
2022/11/03 02:45:02;;;;;;;4.07;2.53;;;;;;;;;;5025775;28;20192;-77
2022/11/03 02:47:28;;;;;;;4.20;2.23;;;;;;;;;;5012278;28;20197;-76
2022/11/03 02:49:54;;;;;;;3.90;2.50;;;;;;;;;;5031628;28;20185;-76
2022/11/03 02:52:40;;;;;;;3.93;2.47;;;;;;;;;;5010989;28;20210;-76
2022/11/03 02:55:08;;;;;;;4.20;2.10;;;;;;;;;;5016830;28;20190;-76
2022/11/03 02:57:35;;;;;;;4.77;2.70;;;;;;;;;;5031457;28;20183;-76
2022/11/03 03:00:05;;;;;;;3.53;2.30;;;;;;;;;;5028927;28;20178;-76
2022/11/03 03:02:50;;;;;;;7.00;2.43;;;;;;;;;;5013241;28;20213;-76
2022/11/03 03:05:17;;;;;;;4.17;2.83;;;;;;;;;;5003509;28;20195;-76
2022/11/03 03:07:48;;;;;;;7.30;2.90;;;;;;;;;;5007609;28;20202;-76
2022/11/03 03:10:13;;;;;;;3.93;2.50;;;;;;;;;;5009673;28;20181;-76
2022/11/03 03:12:40;;;;;;;5.73;3.40;;;;;;;;;;5018189;28;20255;-76
2022/11/03 03:15:06;;;;;;;8.87;3.13;;;;;;;;;;5014539;28;20179;-76
2022/11/03 03:17:32;;;;;;;7.47;3.20;;;;;;;;;;5014539;28;20182;-76
2022/11/03 03:20:06;;;;;;;9.03;3.30;;;;;;;;;;5020642;28;20178;-76
2022/11/03 03:22:38;;;;;;;8.23;3.30;;;;;;;;;;5021641;28;20273;-76
2022/11/03 03:25:10;;;;;;;5.90;3.60;;;;;;;;;;5021544;28;20448;-76
2022/11/03 03:27:38;;;;;;;7.13;3.30;;;;;;;;;;5016283;28;20184;-76
2022/11/03 03:30:05;;;;;;;7.93;3.53;;;;;;;;;;5023689;28;20177;-76
2022/11/03 03:32:33;;;;;;;7.80;3.20;;;;;;;;;;5021247;28;20199;-76
2022/11/03 03:34:59;;;;;;;12.87;4.40;;;;;;;;;;5014893;28;20323;-77
2022/11/03 03:37:25;;;;;;;6.80;3.60;;;;;;;;;;5019111;28;20246;-76
2022/11/03 03:39:52;;;;;;;11.73;3.57;;;;;;;;;;5035997;28;20182;-76
2022/11/03 03:42:19;;;;;;;6.00;4.00;;;;;;;;;;5015228;28;20707;-77
2022/11/03 03:44:44;;;;;;;10.27;3.77;;;;;;;;;;5013758;28;20183;-76
2022/11/03 03:47:16;;;;;;;9.27;4.13;;;;;;;;;;5015513;28;20179;-76
2022/11/03 03:49:42;;;;;;;7.33;3.50;;;;;;;;;;5019631;28;20181;-77
2022/11/03 03:52:08;;;;;;;9.07;3.87;;;;;;;;;;5020553;28;20252;-76
2022/11/03 03:54:33;;;;;;;4.90;2.83;;;;;;;;;;5019800;28;20212;-76
2022/11/03 03:57:01;;;;;;;7.13;3.47;;;;;;;;;;5017898;28;20210;-76
2022/11/03 03:59:26;;;;;;;8.10;3.10;;;;;;;;;;5019697;28;20266;-77
2022/11/03 04:01:51;;;;;;;5.50;2.93;;;;;;;;;;5016428;28;20262;-76
2022/11/03 04:04:16;;;;;;;4.97;2.87;;;;;;;;;;5016495;28;20183;-76
2022/11/03 04:06:42;;;;;;;7.03;3.10;;;;;;;;;;5018379;28;20217;-76
2022/11/03 04:09:07;;;;;;;3.20;2.63;;;;;;;;;;5014788;28;20186;-76
2022/11/03 04:22:30;;;;;;;5.27;3.10;;;;;;;;;;5032031;28;20470;-76
2022/11/03 04:24:56;;;;;;;4.43;2.37;;;;;;;;;;5019636;28;20210;-76
2022/11/03 04:27:22;;;;;;;7.30;2.73;;;;;;;;;;5019953;28;20504;-77
2022/11/03 04:29:47;;;;;;;3.67;2.43;;;;;;;;;;5020445;28;20196;-77
2022/11/03 04:32:16;;;;;;;7.20;2.70;;;;;;;;;;5018933;28;20206;-76
2022/11/03 04:34:41;;;;;;;8.73;2.53;;;;;;;;;;5015377;28;20220;-77
2022/11/03 04:37:11;;;;;;;5.17;2.90;;;;;;;;;;5034097;28;20178;-76
2022/11/03 04:39:36;;;;;;;6.43;3.40;;;;;;;;;;5013492;28;20313;-77
2022/11/03 04:42:01;;;;;;;6.00;2.67;;;;;;;;;;5043304;28;20242;-77
2022/11/03 04:44:27;;;;;;;4.43;2.80;;;;;;;;;;5019195;28;20175;-77
2022/11/03 04:46:52;;;;;;;5.77;2.50;;;;;;;;;;5011368;28;20184;-77
2022/11/03 04:49:22;;;;;;;4.90;2.67;;;;;;;;;;5020621;28;20227;-77
2022/11/03 04:51:47;;;;;;;6.33;3.80;;;;;;;;;;5015559;28;20198;-76
2022/11/03 04:54:14;;;;;;;9.50;3.80;;;;;;;;;;5014363;28;20186;-76
2022/11/03 04:56:40;;;;;;;5.53;3.30;;;;;;;;;;5015304;28;20183;-77
2022/11/03 04:59:09;;;;;;;5.57;2.90;;;;;;;;;;5027549;28;20206;-77
2022/11/03 05:01:35;;;;;;;7.60;3.43;;;;;;;;;;5034542;28;20183;-76
2022/11/03 05:04:00;;;;;;;9.43;4.17;;;;;;;;;;5016274;28;20313;-76
2022/11/03 05:06:26;;;;;;;9.90;4.33;;;;;;;;;;5009791;28;20186;-76
2022/11/03 05:09:04;;;;;;;11.30;5.07;;;;;;;;;;5022504;28;20182;-77
2022/11/03 05:11:31;;;;;;;10.10;5.43;;;;;;;;;;5014321;28;20300;-76
2022/11/03 05:13:58;;;;;;;9.33;4.70;;;;;;;;;;5015812;28;20525;-76
2022/11/03 05:16:23;;;;;;;11.17;5.10;;;;;;;;;;5019193;28;20194;-76
2022/11/03 05:18:49;;;;;;;11.07;4.53;;;;;;;;;;5013745;28;20168;-77
2022/11/03 05:21:17;;;;;;;11.10;5.07;;;;;;;;;;5016190;28;20182;-77
2022/11/03 05:23:53;;;;;;;7.67;4.00;;;;;;;;;;5016064;28;20175;-76
2022/11/03 05:26:23;;;;;;;8.77;5.87;;;;;;;;;;5021461;28;20170;-77
2022/11/03 05:28:58;;;;;;;7.17;4.57;;;;;;;;;;5019486;28;20244;-77
2022/11/03 05:31:32;;;;;;;9.97;6.00;;;;;;;;;;5036267;28;20202;-76
2022/11/03 05:33:59;;;;;;;12.43;5.00;;;;;;;;;;5007764;28;20188;-77
2022/11/03 05:36:26;;;;;;;9.40;4.67;;;;;;;;;;5012006;28;20225;-77
2022/11/03 05:38:54;;;;;;;13.13;8.00;;;;;;;;;;5034917;28;20187;-76
2022/11/03 05:41:28;;;;;;;12.80;4.87;;;;;;;;;;5019490;28;20212;-76
2022/11/03 05:43:55;;;;;;;11.73;5.47;;;;;;;;;;5009927;28;20182;-77
2022/11/03 05:46:21;;;;;;;11.73;5.67;;;;;;;;;;5036214;28;20280;-76
2022/11/03 05:48:48;;;;;;;10.27;4.90;;;;;;;;;;5008902;28;20189;-76
2022/11/03 05:51:23;;;;;;;12.37;5.73;;;;;;;;;;5010437;28;20194;-76
2022/11/03 05:53:53;;;;;;;11.87;5.37;;;;;;;;;;5015030;28;20178;-76
2022/11/03 05:56:21;;;;;;;14.43;6.90;;;;;;;;;;5013017;28;20176;-76
2022/11/03 05:58:47;;;;;;;7.00;4.80;;;;;;;;;;5012822;28;20182;-77
2022/11/03 06:01:16;;;;;;;7.07;5.13;;;;;;;;;;5012210;28;20186;-76
2022/11/03 06:03:41;;;;;;;11.00;6.03;;;;;;;;;;5014956;28;20180;-76
2022/11/03 06:06:13;;;;;;;8.83;5.17;;;;;;;;;;5012609;28;20177;-76
2022/11/03 06:08:38;;;;;;;8.57;4.70;;;;;;;;;;5009592;28;20328;-76
2022/11/03 06:11:04;;;;;;;7.10;4.33;;;;;;;;;;5013224;28;20285;-77
2022/11/03 06:13:31;;;;;;;11.03;5.60;;;;;;;;;;5014067;28;20175;-76
2022/11/03 06:15:57;;;;;;;7.70;5.33;;;;;;;;;;5010227;28;20211;-76
2022/11/03 06:18:24;;;;;;;7.00;4.27;;;;;;;;;;5035642;28;20186;-77
2022/11/03 06:20:54;;;;;;;9.33;4.57;;;;;;;;;;5007283;28;20208;-76
2022/11/03 06:23:19;;;;;;;6.63;4.47;;;;;;;;;;5001839;28;20442;-77
2022/11/03 06:25:45;;;;;;;9.33;5.20;;;;;;;;;;5009045;28;20189;-77
2022/11/03 06:28:15;;;;;;;9.87;5.87;;;;;;;;;;5006402;28;20244;-77
2022/11/03 06:30:41;;;;;;;6.97;4.80;;;;;;;;;;5025045;28;20265;-76
2022/11/03 06:33:22;;;;;;;5.37;4.53;;;;;;;;;;5007621;28;20341;-77
2022/11/03 06:35:49;;;;;;;10.20;5.00;;;;;;;;;;4997208;28;20287;-76
2022/11/03 06:38:18;;;;;;;8.33;4.00;;;;;;;;;;5011357;28;20175;-76
2022/11/03 06:40:44;;;;;;;7.07;4.17;;;;;;;;;;4993500;28;20268;-77
2022/11/03 06:43:15;;;;;;;10.37;5.77;;;;;;;;;;5013720;28;20182;-77
2022/11/03 06:45:44;;;;;;;5.80;4.47;;;;;;;;;;5000878;28;20286;-76
2022/11/03 06:48:11;;;;;;;6.97;4.20;;;;;;;;;;4993554;28;20226;-77
2022/11/03 06:50:36;;;;;;;8.23;4.40;;;;;;;;;;4987044;28;20172;-77
2022/11/03 06:53:02;;;;;;;6.77;4.40;;;;;;;;;;4997654;28;20210;-76
2022/11/03 06:55:33;;;;;;;7.50;4.20;;;;;;;;;;4991005;28;20171;-76
2022/11/03 06:58:03;;;;;;;6.30;4.30;;;;;;;;;;4995518;28;20172;-77
2022/11/03 07:00:29;;;;;;;8.00;3.93;;;;;;;;;;4991299;28;20190;-77
2022/11/03 07:03:07;;;;;;;7.83;4.27;;;;;;;;;;4986622;28;20187;-77
2022/11/03 07:05:32;;;;;;;5.53;3.83;;;;;;;;;;4991320;28;20216;-77
2022/11/03 07:07:59;;;;;;;9.10;3.80;;;;;;;;;;4997755;28;20184;-76
2022/11/03 07:10:25;;;;;;;8.50;4.20;;;;;;;;;;4988536;28;20260;-77
2022/11/03 07:12:51;;;;;;;5.93;3.43;;;;;;;;;;5005442;28;20204;-76
2022/11/03 07:15:23;;;;;;;6.70;3.90;;;;;;;;;;4993017;28;20198;-77
2022/11/03 07:17:48;;;;;;;4.57;3.70;;;;;;;;;;4992355;28;20174;-77
2022/11/03 07:20:15;;;;;;;8.80;4.20;;;;;;;;;;4992502;28;20258;-77
2022/11/03 07:22:40;;;;;;;8.80;4.50;;;;;;;;;;5006705;28;20283;-77
2022/11/03 07:25:08;;;;;;;6.93;3.83;;;;;;;;;;5007007;28;20250;-77
2022/11/03 07:27:34;;;;;;;5.83;4.10;;;;;;;;;;4991502;28;20260;-76
2022/11/03 07:30:10;;;;;;;7.10;3.50;;;;;;;;;;4986107;28;20232;-77
2022/11/03 07:32:35;;;;;;;4.83;4.10;;;;;;;;;;5004659;28;20212;-76
2022/11/03 07:35:03;;;;;;;10.57;4.07;;;;;;;;;;4996381;28;20227;-76
2022/11/03 07:37:29;;;;;;;9.03;4.43;;;;;;;;;;5010980;28;20179;-77
2022/11/03 07:39:56;;;;;;;10.30;3.97;;;;;;;;;;5010102;28;20173;-76
2022/11/03 07:42:23;;;;;;;6.90;4.27;;;;;;;;;;5005343;28;20207;-77
2022/11/03 07:44:48;;;;;;;5.90;4.23;;;;;;;;;;5014253;28;20190;-77
2022/11/03 07:47:18;;;;;;;7.50;4.70;;;;;;;;;;5006713;28;20180;-77
2022/11/03 07:49:44;;;;;;;7.73;4.30;;;;;;;;;;5007906;28;20191;-76
2022/11/03 07:52:12;;;;;;;8.07;4.60;;;;;;;;;;5011843;28;20195;-78
2022/11/03 07:54:38;;;;;;;8.87;4.63;;;;;;;;;;5004946;28;20188;-77
2022/11/03 07:57:04;;;;;;;8.40;4.67;;;;;;;;;;5007210;28;20246;-77
2022/11/03 07:59:31;;;;;;;8.30;5.00;;;;;;;;;;5011369;28;20225;-78
2022/11/03 08:01:57;;;;;;;4.90;4.40;;;;;;;;;;5023490;28;20197;-77
2022/11/03 08:04:30;;;;;;;7.80;4.63;;;;;;;;;;5030098;28;20179;-78
2022/11/03 08:06:55;;;;;;;7.07;4.80;;;;;;;;;;5015563;28;20194;-77
2022/11/03 08:09:20;;;;;;;7.07;4.97;;;;;;;;;;5015956;28;20174;-77
2022/11/03 08:11:46;;;;;;;6.27;5.30;;;;;;;;;;5023264;28;20269;-78
2022/11/03 08:14:11;;;;;;;5.30;4.20;;;;;;;;;;5031016;28;20178;-77
2022/11/03 08:16:36;;;;;;;10.23;5.00;;;;;;;;;;5016429;28;20299;-78
2022/11/03 08:19:02;;;;;;;8.87;5.50;;;;;;;;;;5016745;28;20186;-78
2022/11/03 08:21:27;;;;;;;7.23;5.00;;;;;;;;;;5023194;28;20175;-78
2022/11/03 08:23:52;;;;;;;8.93;4.73;;;;;;;;;;5017485;28;20186;-77
2022/11/03 08:26:18;;;;;;;9.03;4.57;;;;;;;;;;5014317;28;20214;-78
2022/11/03 08:28:43;;;;;;;6.20;4.03;;;;;;;;;;5014602;28;20203;-78
2022/11/03 08:31:09;;;;;;;9.27;4.60;;;;;;;;;;5027302;28;20186;-78
2022/11/03 08:33:34;;;;;;;6.27;4.33;;;;;;;;;;5009778;28;20183;-77
2022/11/03 08:36:00;;;;;;;5.60;4.17;;;;;;;;;;5014101;28;20283;-77
2022/11/03 08:38:26;;;;;;;7.47;4.03;;;;;;;;;;5020624;28;20248;-77
2022/11/03 08:40:52;;;;;;;6.60;3.67;;;;;;;;;;5013651;28;20209;-77
2022/11/03 08:43:17;;;;;;;9.10;4.57;;;;;;;;;;5035547;28;20178;-77
2022/11/03 08:45:42;;;;;;;5.70;4.00;;;;;;;;;;5030027;28;20198;-77
2022/11/03 08:48:08;;;;;;;6.80;4.40;;;;;;;;;;5033883;28;20175;-77
2022/11/03 08:50:33;;;;;;;6.90;4.73;;;;;;;;;;5014676;28;20210;-77
2022/11/03 08:52:58;;;;;;;6.13;3.80;;;;;;;;;;5021065;28;20202;-78
2022/11/03 08:55:23;;;;;;;4.37;3.63;;;;;;;;;;5012807;28;20168;-77
2022/11/03 08:57:49;;;;;;;4.57;3.27;;;;;;;;;;5031913;28;20202;-77
2022/11/03 09:00:15;;;;;;;6.43;3.60;;;;;;;;;;5014999;28;20174;-77
2022/11/03 09:02:41;;;;;;;5.07;3.27;;;;;;;;;;5015469;28;20220;-77
2022/11/03 09:05:06;;;;;;;4.33;2.73;;;;;;;;;;5028596;28;20203;-78
2022/11/03 09:07:32;;;;;;;3.43;2.90;;;;;;;;;;5014190;28;20225;-79
2022/11/03 09:09:57;;;;;;;4.37;3.00;;;;;;;;;;5012225;28;20203;-75
2022/11/03 09:12:22;;;;;;;3.60;2.60;;;;;;;;;;5035105;28;20238;-75
2022/11/03 09:14:47;;;;;;;2.30;2.10;;;;;;;;;;5018912;28;20245;-75
2022/11/03 09:17:12;;;;;;;2.40;2.20;;;;;;;;;;5033696;28;20218;-75
2022/11/03 09:19:38;;;;;;;3.27;1.90;;;;;;;;;;5017404;28;20181;-75
2022/11/03 09:22:03;;;;;;;2.50;1.80;;;;;;;;;;5016528;28;20194;-75
2022/11/03 09:24:29;;;;;;;4.07;2.20;;;;;;;;;;5015039;28;20184;-75
2022/11/03 09:26:54;;;;;;;3.13;2.43;;;;;;;;;;5016646;28;20184;-75
2022/11/03 09:29:19;;;;;;;4.47;2.30;;;;;;;;;;5016394;28;20204;-76
2022/11/03 09:31:45;;;;;;;5.40;2.93;;;;;;;;;;5016362;28;20205;-75
2022/11/03 09:34:10;;;;;;;2.97;2.33;;;;;;;;;;5012336;28;20175;-75
2022/11/03 09:36:35;;;;;;;5.83;3.63;;;;;;;;;;4992412;28;20187;-76
2022/11/03 09:39:00;;;;;;;5.43;4.00;;;;;;;;;;4995329;28;20173;-75
2022/11/03 09:41:26;;;;;;;4.53;3.07;;;;;;;;;;5002582;28;20195;-76
2022/11/03 09:43:51;;;;;;;6.53;3.93;;;;;;;;;;4994765;28;20200;-76
2022/11/03 09:46:16;;;;;;;7.27;3.30;;;;;;;;;;4994603;28;20175;-76
2022/11/03 09:48:41;;;;;;;7.00;4.37;;;;;;;;;;4999562;28;20208;-76
2022/11/03 09:51:13;;;;;;;5.60;3.67;;;;;;;;;;4999092;28;20184;-76
2022/11/03 09:53:38;;;;;;;6.20;4.27;;;;;;;;;;4998361;28;20182;-75
2022/11/03 09:56:03;;;;;;;6.37;3.97;;;;;;;;;;4995839;28;20241;-76
2022/11/03 09:58:29;;;;;;;4.53;3.03;;;;;;;;;;4998486;28;20200;-76
2022/11/03 10:00:54;;;;;;;4.57;3.60;;;;;;;;;;4997025;28;20297;-75
2022/11/03 10:03:19;;;;;;;4.23;2.90;;;;;;;;;;4993723;28;20273;-76
2022/11/03 10:05:45;;;;;;;6.00;3.30;;;;;;;;;;5009257;28;20201;-75
2022/11/03 10:08:22;;;;;;;3.77;2.80;;;;;;;;;;4994819;28;20235;-76
2022/11/03 10:10:48;;;;;;;5.93;3.40;;;;;;;;;;4996888;28;20201;-75
2022/11/03 10:13:22;;;;;;;6.27;3.83;;;;;;;;;;5001939;28;20214;-76
2022/11/03 10:15:48;;;;;;;5.20;3.30;;;;;;;;;;4994161;28;20184;-76
2022/11/03 10:18:13;;;;;;;3.27;2.90;;;;;;;;;;4991907;28;20165;-75
2022/11/03 10:20:39;;;;;;;5.07;2.83;;;;;;;;;;4988237;28;20178;-76
2022/11/03 10:23:04;;;;;;;3.87;3.10;;;;;;;;;;4996927;28;20186;-76
2022/11/03 10:25:35;;;;;;;5.87;3.53;;;;;;;;;;4996491;28;20277;-76
2022/11/03 10:28:13;;;;;;;5.37;3.00;;;;;;;;;;4991618;28;20319;-76
2022/11/03 10:30:47;;;;;;;5.67;2.90;;;;;;;;;;4997396;28;20256;-75
2022/11/03 10:33:32;;;;;;;3.30;2.00;;;;;;;;;;5019911;28;20225;-76
2022/11/03 10:35:58;;;;;;;6.40;2.53;;;;;;;;;;5034122;28;20307;-75
2022/11/03 10:38:29;;;;;;;4.37;2.77;;;;;;;;;;5030643;28;20197;-76
2022/11/03 10:40:54;;;;;;;4.83;2.40;;;;;;;;;;5008215;28;20170;-76
2022/11/03 10:43:20;;;;;;;2.80;2.53;;;;;;;;;;5038182;28;20180;-76
2022/11/03 10:45:45;;;;;;;3.13;2.50;;;;;;;;;;5030710;28;20188;-76
2022/11/03 10:48:10;;;;;;;4.23;2.30;;;;;;;;;;5042785;28;20174;-76
2022/11/03 10:50:37;;;;;;;5.37;2.50;;;;;;;;;;5023464;28;20178;-75
2022/11/03 10:53:03;;;;;;;2.60;2.30;;;;;;;;;;5031180;28;20201;-75
2022/11/03 10:55:29;;;;;;;2.70;2.50;;;;;;;;;;5028936;28;20189;-76
2022/11/03 10:57:54;;;;;;;5.57;2.70;;;;;;;;;;5046462;28;20170;-76
2022/11/03 11:00:20;;;;;;;2.53;2.30;;;;;;;;;;5037350;28;20292;-76
2022/11/03 11:02:46;;;;;;;3.00;2.57;;;;;;;;;;5045471;28;20181;-76
2022/11/03 11:05:17;;;;;;;3.53;2.53;;;;;;;;;;5048639;28;20216;-76
2022/11/03 11:07:43;;;;;;;3.33;2.23;;;;;;;;;;5035197;28;20177;-76
2022/11/03 11:10:11;;;;;;;4.20;2.97;;;;;;;;;;5039039;28;20185;-76
2022/11/03 11:12:37;;;;;;;4.30;3.33;;;;;;;;;;5047275;28;20220;-76
2022/11/03 11:15:06;;;;;;;3.83;2.83;;;;;;;;;;5033436;28;20187;-76
2022/11/03 11:17:49;;;;;;;3.83;2.53;;;;;;;;;;5050012;28;20269;-76
2022/11/03 11:20:20;;;;;;;3.40;2.60;;;;;;;;;;5037823;28;20188;-76
2022/11/03 11:22:45;;;;;;;3.17;2.80;;;;;;;;;;5050543;28;20169;-76
2022/11/03 11:25:10;;;;;;;8.00;2.90;;;;;;;;;;5048893;28;20215;-76
2022/11/03 11:27:36;;;;;;;3.43;3.07;;;;;;;;;;5033220;28;20182;-76
2022/11/03 11:30:03;;;;;;;3.60;3.00;;;;;;;;;;5035420;28;20251;-76
2022/11/03 11:32:38;;;;;;;4.07;2.83;;;;;;;;;;5034054;28;20228;-76
2022/11/03 11:35:05;;;;;;;3.77;2.80;;;;;;;;;;5025773;28;20232;-76
2022/11/03 11:37:32;;;;;;;4.73;3.23;;;;;;;;;;5027747;28;20175;-76
2022/11/03 11:39:57;;;;;;;4.67;2.87;;;;;;;;;;5020679;28;20221;-76
2022/11/03 11:42:22;;;;;;;3.47;2.63;;;;;;;;;;5015937;28;20190;-76
2022/11/03 11:44:57;;;;;;;4.17;2.57;;;;;;;;;;5017568;28;20195;-76
2022/11/03 11:47:22;;;;;;;4.77;2.60;;;;;;;;;;5020025;28;20209;-76
2022/11/03 11:50:00;;;;;;;4.00;2.53;;;;;;;;;;5015857;28;20182;-76
2022/11/03 11:52:26;;;;;;;5.27;3.17;;;;;;;;;;5033991;28;20205;-76
2022/11/03 11:54:51;;;;;;;7.47;5.00;;;;;;;;;;5011665;28;20373;-76
2022/11/03 11:57:18;;;;;;;3.40;3.10;;;;;;;;;;5021593;28;20183;-76
2022/11/03 11:59:44;;;;;;;9.90;4.10;;;;;;;;;;5012529;28;20228;-76
2022/11/03 12:02:17;;;;;;;6.30;4.30;;;;;;;;;;5011329;28;20198;-76
2022/11/03 12:04:45;;;;;;;10.10;7.67;;;;;;;;;;5014571;28;20194;-76
2022/11/03 12:07:13;;;;;;;3.90;3.50;;;;;;;;;;5016032;28;20180;-76
2022/11/03 12:09:39;;;;;;;7.90;5.20;;;;;;;;;;5011506;28;20226;-76
2022/11/03 12:12:04;;;;;;;2.77;2.53;;;;;;;;;;5018601;28;20210;-76
2022/11/03 12:14:36;;;;;;;3.73;2.47;;;;;;;;;;5017189;28;20189;-76
2022/11/03 12:17:17;;;;;;;3.57;2.47;;;;;;;;;;5030303;28;20181;-76
2022/11/03 12:19:46;;;;;;;2.53;2.33;;;;;;;;;;5033788;28;20181;-76
2022/11/03 12:22:31;;;;;;;3.30;2.60;;;;;;;;;;5008810;28;20256;-76
2022/11/03 12:25:00;;;;;;;2.93;2.63;;;;;;;;;;5012078;28;20188;-76
2022/11/03 12:27:25;;;;;;;7.13;2.90;;;;;;;;;;5012970;28;20183;-76
2022/11/03 12:29:51;;;;;;;3.97;3.17;;;;;;;;;;5011004;28;20207;-76
2022/11/03 12:32:16;;;;;;;3.37;2.77;;;;;;;;;;5030738;28;20211;-76
2022/11/03 12:34:41;;;;;;;4.17;2.97;;;;;;;;;;5012420;28;20257;-76
2022/11/03 12:37:07;;;;;;;5.50;3.87;;;;;;;;;;5014425;28;20210;-76
2022/11/03 12:39:32;;;;;;;3.33;3.03;;;;;;;;;;5034939;28;20222;-76
2022/11/03 12:41:58;;;;;;;5.57;2.90;;;;;;;;;;5016020;28;20207;-76
2022/11/03 12:44:23;;;;;;;4.63;3.30;;;;;;;;;;5015898;28;20189;-76
2022/11/03 12:46:48;;;;;;;4.83;3.57;;;;;;;;;;5019366;28;20186;-76
2022/11/03 12:49:13;;;;;;;6.40;3.17;;;;;;;;;;5011867;28;20182;-76
2022/11/03 12:51:38;;;;;;;3.77;3.40;;;;;;;;;;5015130;28;20195;-76
2022/11/03 12:54:04;;;;;;;4.93;3.10;;;;;;;;;;5033563;28;20238;-76
2022/11/03 12:56:29;;;;;;;3.83;3.47;;;;;;;;;;5031796;28;20174;-76
2022/11/03 12:58:54;;;;;;;6.23;3.83;;;;;;;;;;5011700;28;20172;-76
2022/11/03 13:01:19;;;;;;;3.87;3.47;;;;;;;;;;5014863;28;20171;-76
2022/11/03 13:03:45;;;;;;;3.87;3.00;;;;;;;;;;5016762;28;20181;-76
2022/11/03 13:06:13;;;;;;;4.37;3.37;;;;;;;;;;5030281;28;20198;-76
2022/11/03 13:08:38;;;;;;;4.17;3.60;;;;;;;;;;5014281;28;20186;-76
2022/11/03 13:12:29;;;;;;;3.83;3.40;;;;;;;;;;5018339;28;20176;-76
2022/11/03 13:13:48;;;;;;;4.93;4.03;;;;;;;;;;5024226;28;20229;-76
2022/11/03 13:16:14;;;;;;;3.90;3.50;;;;;;;;;;5016858;28;20218;-76
2022/11/03 13:18:39;;;;;;;4.83;3.53;;;;;;;;;;5010813;28;20182;-76
2022/11/03 13:21:04;;;;;;;4.07;3.67;;;;;;;;;;5016561;28;20237;-76
2022/11/03 13:23:29;;;;;;;3.70;3.40;;;;;;;;;;5014701;28;20171;-76
2022/11/03 13:25:54;;;;;;;4.13;3.33;;;;;;;;;;5015799;28;20265;-76
2022/11/03 13:28:20;;;;;;;3.87;3.20;;;;;;;;;;5040989;28;20197;-76
2022/11/03 13:30:45;;;;;;;3.33;3.03;;;;;;;;;;5013363;28;20180;-76
2022/11/03 13:33:10;;;;;;;4.10;2.90;;;;;;;;;;5037034;28;20207;-76
2022/11/03 13:35:36;;;;;;;3.47;3.17;;;;;;;;;;5003953;28;20239;-76
2022/11/03 13:38:01;;;;;;;4.60;3.13;;;;;;;;;;4996874;28;20193;-76
2022/11/03 13:40:26;;;;;;;5.50;3.10;;;;;;;;;;5012392;28;20186;-76
2022/11/03 13:42:51;;;;;;;3.53;2.97;;;;;;;;;;4996289;28;20197;-76
2022/11/03 13:45:16;;;;;;;3.70;2.90;;;;;;;;;;4996410;28;20262;-76
2022/11/03 13:47:41;;;;;;;4.87;3.00;;;;;;;;;;4996851;28;20267;-76
2022/11/03 13:50:07;;;;;;;7.40;3.40;;;;;;;;;;4997877;28;20204;-76
2022/11/03 13:52:32;;;;;;;3.40;3.10;;;;;;;;;;5007653;28;20212;-76
2022/11/03 13:54:57;;;;;;;3.30;3.00;;;;;;;;;;4991513;28;20202;-76
2022/11/03 13:57:23;;;;;;;5.43;2.80;;;;;;;;;;4997989;28;20185;-76
2022/11/03 13:59:48;;;;;;;3.10;2.80;;;;;;;;;;4996586;28;20254;-76
2022/11/03 14:02:13;;;;;;;3.97;3.57;;;;;;;;;;4998010;28;20179;-76
2022/11/03 14:04:38;;;;;;;3.40;3.10;;;;;;;;;;4999062;28;20221;-76
2022/11/03 14:07:04;;;;;;;4.27;3.87;;;;;;;;;;5017668;28;20218;-76
2022/11/03 14:09:29;;;;;;;4.20;3.80;;;;;;;;;;5009321;28;20206;-76
2022/11/03 14:14:39;;;;;;;4.23;3.50;;;;;;;;;;5010144;28;20191;-76
2022/11/03 14:17:04;;;;;;;4.07;3.43;;;;;;;;;;4995570;28;20182;-76
2022/11/03 14:19:29;;;;;;;3.73;3.43;;;;;;;;;;4996272;28;20179;-76
2022/11/03 14:21:54;;;;;;;4.30;3.40;;;;;;;;;;4994629;28;20187;-76
2022/11/03 14:24:19;;;;;;;5.37;3.50;;;;;;;;;;4994248;28;20184;-76
2022/11/03 14:26:45;;;;;;;7.60;3.80;;;;;;;;;;4992796;28;20180;-77
2022/11/03 14:29:10;;;;;;;5.63;3.77;;;;;;;;;;4999713;28;20198;-76
2022/11/03 14:31:35;;;;;;;5.33;3.60;;;;;;;;;;5000288;28;20183;-76
2022/11/03 14:34:01;;;;;;;8.97;4.57;;;;;;;;;;4994521;28;20174;-76
2022/11/03 14:36:26;;;;;;;6.90;4.20;;;;;;;;;;4996326;28;20248;-76
2022/11/03 14:38:51;;;;;;;5.73;4.17;;;;;;;;;;5032775;28;21359;-76
2022/11/03 14:44:02;;;;;;;5.77;4.47;;;;;;;;;;5015255;28;20232;-76
2022/11/03 14:46:27;;;;;;;4.90;4.40;;;;;;;;;;5026205;28;20173;-76
2022/11/03 14:48:53;;;;;;;4.67;4.10;;;;;;;;;;5001667;28;20180;-76
2022/11/03 14:51:18;;;;;;;4.67;4.23;;;;;;;;;;5021176;28;20188;-76
2022/11/03 14:53:43;;;;;;;5.83;4.70;;;;;;;;;;5009671;28;20204;-76
2022/11/03 14:56:09;;;;;;;5.63;4.67;;;;;;;;;;5003284;28;20185;-76
2022/11/03 14:58:34;;;;;;;4.97;4.40;;;;;;;;;;5013244;28;20187;-76
2022/11/03 15:00:59;;;;;;;6.63;5.00;;;;;;;;;;5013878;28;20169;-76
2022/11/03 15:03:24;;;;;;;5.83;4.77;;;;;;;;;;5012796;28;20184;-76
2022/11/03 15:05:53;;;;;;;5.37;4.30;;;;;;;;;;5011179;28;20593;-76